createdAt,value
2022-11-08T00:00:01.452Z,11.50
2022-11-08T00:02:28.942Z,11.60
2022-11-08T00:04:56.532Z,11.60
2022-11-08T00:07:42.147Z,11.60
2022-11-08T00:10:29.205Z,11.60
2022-11-08T00:13:14.869Z,11.60
2022-11-08T00:15:42.063Z,11.60
2022-11-08T00:18:09.625Z,11.60
2022-11-08T00:20:36.643Z,11.60
2022-11-08T00:23:04.745Z,11.60
2022-11-08T00:25:31.866Z,11.60
2022-11-08T00:27:58.957Z,11.60
2022-11-08T00:30:26.230Z,11.60
2022-11-08T00:32:53.490Z,11.60
2022-11-08T00:35:20.491Z,11.60
2022-11-08T00:37:47.795Z,11.60
2022-11-08T00:40:15.093Z,11.60
2022-11-08T00:42:42.165Z,11.70
2022-11-08T00:45:09.894Z,11.70
2022-11-08T00:47:36.905Z,11.70
2022-11-08T00:50:04.280Z,11.70
2022-11-08T00:52:31.520Z,11.70
2022-11-08T00:54:58.756Z,11.80
2022-11-08T00:57:46.783Z,11.80
2022-11-08T01:00:13.880Z,11.80
2022-11-08T01:02:41.239Z,11.80
2022-11-08T01:05:08.705Z,11.80
2022-11-08T01:07:35.749Z,11.80
2022-11-08T01:10:02.921Z,11.80
2022-11-08T01:12:30.127Z,11.80
2022-11-08T01:14:57.371Z,11.80
2022-11-08T01:17:24.580Z,11.70
2022-11-08T01:19:51.598Z,11.80
2022-11-08T01:22:18.728Z,11.80
2022-11-08T01:24:45.747Z,11.80
2022-11-08T01:27:13.186Z,11.80
2022-11-08T01:29:40.195Z,11.80
2022-11-08T01:32:07.688Z,11.90
2022-11-08T01:34:35.002Z,11.90
2022-11-08T01:37:02.032Z,11.90
2022-11-08T01:39:33.244Z,11.90
2022-11-08T01:42:00.837Z,11.90
2022-11-08T01:44:27.945Z,11.90
2022-11-08T01:46:55.372Z,11.90
2022-11-08T01:49:22.470Z,11.90
2022-11-08T01:51:53.293Z,11.90
2022-11-08T01:54:28.576Z,11.90
2022-11-08T01:56:58.579Z,11.90
2022-11-08T01:59:26.327Z,12.00
2022-11-08T02:01:54.057Z,12.00
2022-11-08T02:04:21.273Z,12.00
2022-11-08T02:06:49.261Z,12.00
2022-11-08T02:09:19.100Z,12.00
2022-11-08T02:11:48.478Z,12.00
2022-11-08T02:14:16.991Z,12.00
2022-11-08T02:16:44.456Z,12.10
2022-11-08T02:19:20.124Z,12.10
2022-11-08T02:22:01.659Z,12.10
2022-11-08T02:24:28.904Z,12.10
2022-11-08T02:26:57.834Z,12.20
2022-11-08T02:29:36.544Z,12.20
2022-11-08T02:32:04.858Z,12.20
2022-11-08T02:34:37.835Z,12.20
2022-11-08T02:37:06.958Z,12.30
2022-11-08T02:39:34.460Z,12.30
2022-11-08T02:42:02.656Z,12.30
2022-11-08T02:44:29.842Z,12.30
2022-11-08T02:46:58.235Z,12.30
2022-11-08T02:49:25.868Z,12.30
2022-11-08T02:51:53.925Z,12.30
2022-11-08T02:54:21.370Z,12.30
2022-11-08T02:56:48.794Z,12.30
2022-11-08T02:59:15.995Z,12.40
2022-11-08T03:01:43.348Z,12.40
2022-11-08T03:04:10.642Z,12.40
2022-11-08T03:06:37.774Z,12.40
2022-11-08T03:09:05.495Z,12.40
2022-11-08T03:11:32.795Z,12.40
2022-11-08T03:14:00.017Z,12.50
2022-11-08T03:16:27.149Z,12.50
2022-11-08T03:18:54.313Z,12.50
2022-11-08T03:21:21.488Z,12.50
2022-11-08T03:23:48.812Z,12.50
2022-11-08T03:26:16.074Z,12.50
2022-11-08T03:28:43.261Z,12.60
2022-11-08T03:31:10.333Z,12.60
2022-11-08T03:33:37.601Z,12.60
2022-11-08T03:36:04.995Z,12.60
2022-11-08T03:38:32.021Z,12.60
2022-11-08T03:40:59.292Z,12.60
2022-11-08T03:43:26.986Z,12.60
2022-11-08T03:45:54.032Z,12.60
2022-11-08T03:48:23.642Z,12.60
2022-11-08T03:50:52.061Z,12.70
2022-11-08T03:53:19.554Z,12.60
2022-11-08T03:55:46.629Z,12.70
2022-11-08T03:58:13.750Z,12.70
2022-11-08T04:00:41.156Z,12.70
2022-11-08T04:03:08.270Z,12.70
2022-11-08T04:05:35.580Z,12.70
2022-11-08T04:08:04.872Z,12.70
2022-11-08T04:10:31.963Z,12.70
2022-11-08T04:13:20.649Z,12.70
2022-11-08T04:15:53.965Z,12.70
2022-11-08T04:18:39.674Z,12.70
2022-11-08T04:21:24.683Z,12.80
2022-11-08T04:23:52.931Z,12.80
2022-11-08T04:26:21.762Z,12.80
2022-11-08T04:28:49.068Z,12.70
2022-11-08T04:31:18.582Z,12.80
2022-11-08T04:33:45.994Z,12.80
2022-11-08T04:36:17.429Z,12.80
2022-11-08T04:38:47.336Z,12.80
2022-11-08T04:41:16.281Z,12.80
2022-11-08T04:43:45.427Z,12.80
2022-11-08T04:46:15.171Z,12.80
2022-11-08T04:48:43.555Z,12.80
2022-11-08T04:51:27.883Z,12.80
2022-11-08T04:53:57.807Z,12.80
2022-11-08T04:56:26.090Z,12.80
2022-11-08T04:58:56.035Z,12.80
2022-11-08T05:01:26.746Z,12.80
2022-11-08T05:03:55.113Z,12.80
2022-11-08T05:06:25.388Z,12.80
2022-11-08T05:08:54.378Z,12.80
2022-11-08T05:11:23.599Z,12.80
2022-11-08T05:13:51.490Z,12.80
2022-11-08T05:16:21.653Z,12.80
2022-11-08T05:18:49.250Z,12.80
2022-11-08T05:21:36.440Z,12.80
2022-11-08T05:24:05.354Z,12.90
2022-11-08T05:26:36.273Z,12.90
2022-11-08T05:29:04.224Z,12.90
2022-11-08T05:31:31.597Z,12.90
2022-11-08T05:34:00.239Z,12.90
2022-11-08T05:36:28.123Z,12.90
2022-11-08T05:38:56.097Z,12.90
2022-11-08T05:41:24.377Z,12.90
2022-11-08T05:43:53.482Z,12.90
2022-11-08T05:46:22.252Z,12.90
2022-11-08T05:48:49.646Z,13.00
2022-11-08T05:51:18.268Z,13.00
2022-11-08T05:53:47.153Z,13.00
2022-11-08T05:56:14.824Z,13.00
2022-11-08T05:58:41.915Z,13.00
2022-11-08T06:01:11.499Z,13.00
2022-11-08T06:03:39.499Z,13.00
2022-11-08T06:06:15.253Z,13.00
2022-11-08T06:08:47.505Z,13.00
2022-11-08T06:11:21.766Z,13.00
2022-11-08T06:13:49.245Z,13.00
2022-11-08T06:16:18.323Z,13.00
2022-11-08T06:18:45.635Z,13.10
2022-11-08T06:21:15.758Z,13.10
2022-11-08T06:23:43.541Z,13.10
2022-11-08T06:26:11.061Z,13.10
2022-11-08T06:28:38.642Z,13.10
2022-11-08T06:31:06.180Z,13.20
2022-11-08T06:33:33.321Z,13.10
2022-11-08T06:36:00.420Z,13.10
2022-11-08T06:38:27.906Z,13.10
2022-11-08T06:40:55.036Z,13.10
2022-11-08T06:43:22.467Z,13.10
2022-11-08T06:45:49.915Z,13.10
2022-11-08T06:48:16.946Z,13.10
2022-11-08T06:50:44.443Z,13.10
2022-11-08T06:53:13.624Z,13.10
2022-11-08T06:55:41.214Z,11.80
2022-11-08T06:58:08.522Z,13.10
2022-11-08T07:00:35.554Z,13.10
2022-11-08T07:03:03.909Z,13.10
2022-11-08T07:05:32.884Z,13.10
2022-11-08T07:08:00.819Z,13.10
2022-11-08T07:10:30.511Z,13.10
2022-11-08T07:13:03.098Z,13.10
2022-11-08T07:15:30.841Z,13.10
2022-11-08T07:18:13.106Z,13.10
2022-11-08T07:20:41.108Z,13.10
2022-11-08T07:23:09.639Z,13.10
2022-11-08T07:25:37.424Z,13.20
2022-11-08T07:28:07.542Z,13.20
2022-11-08T07:30:36.025Z,13.20
2022-11-08T07:33:03.152Z,13.20
2022-11-08T07:35:31.293Z,13.20
2022-11-08T07:37:58.587Z,13.20
2022-11-08T07:40:26.044Z,13.20
2022-11-08T07:43:14.798Z,13.20
2022-11-08T07:45:42.450Z,13.20
2022-11-08T07:48:13.230Z,13.30
2022-11-08T07:50:42.108Z,13.30
2022-11-08T07:53:10.018Z,13.30
2022-11-08T07:55:41.121Z,13.30
2022-11-08T07:58:09.915Z,13.30
2022-11-08T08:00:38.454Z,13.30
2022-11-08T08:03:07.832Z,13.40
2022-11-08T08:05:37.143Z,13.40
2022-11-08T08:08:05.261Z,13.40
2022-11-08T08:10:32.740Z,13.40
2022-11-08T08:13:00.091Z,13.50
2022-11-08T08:15:27.157Z,13.50
2022-11-08T08:17:54.556Z,13.50
2022-11-08T08:20:21.907Z,13.60
2022-11-08T08:22:50.924Z,13.60
2022-11-08T08:25:19.014Z,13.60
2022-11-08T08:27:57.319Z,13.60
2022-11-08T08:30:25.765Z,13.60
2022-11-08T08:33:22.057Z,13.60
2022-11-08T08:35:43.388Z,13.60
2022-11-08T08:38:11.899Z,13.60
2022-11-08T08:40:39.395Z,13.70
2022-11-08T08:43:07.135Z,13.70
2022-11-08T08:45:35.053Z,13.70
2022-11-08T08:48:03.003Z,13.70
2022-11-08T08:50:32.678Z,13.70
2022-11-08T08:53:04.978Z,13.70
2022-11-08T08:55:32.975Z,13.70
2022-11-08T08:57:59.974Z,13.70
2022-11-08T09:03:15.508Z,13.70
2022-11-08T09:05:44.327Z,13.70
2022-11-08T09:08:12.813Z,13.70
2022-11-08T09:10:40.246Z,13.80
2022-11-08T09:13:07.285Z,13.70
2022-11-08T09:15:34.474Z,13.70
2022-11-08T09:18:01.651Z,13.80
2022-11-08T09:20:28.802Z,13.80
2022-11-08T09:22:55.818Z,13.70
2022-11-08T09:25:22.907Z,13.70
2022-11-08T09:27:50.247Z,13.70
2022-11-08T09:30:17.334Z,13.70
2022-11-08T09:33:00.372Z,13.70
2022-11-08T09:35:28.582Z,13.70
2022-11-08T09:37:55.780Z,13.70
2022-11-08T09:40:47.206Z,13.70
2022-11-08T09:43:36.524Z,13.70
2022-11-08T09:46:03.784Z,13.70
2022-11-08T09:48:43.192Z,13.80
2022-11-08T09:51:16.660Z,13.80
2022-11-08T09:53:54.464Z,13.80
2022-11-08T09:56:21.644Z,13.90
2022-11-08T09:59:03.356Z,13.90
2022-11-08T10:01:36.062Z,13.90
2022-11-08T10:04:08.701Z,13.90
2022-11-08T10:07:02.213Z,13.90
2022-11-08T10:10:04.424Z,13.90
2022-11-08T10:13:01.476Z,14.00
2022-11-08T10:15:46.386Z,14.00
2022-11-08T10:18:44.059Z,14.00
2022-11-08T10:21:30.754Z,14.00
2022-11-08T10:24:29.636Z,14.00
2022-11-08T10:26:59.331Z,14.10
2022-11-08T10:29:40.482Z,14.10
2022-11-08T10:32:24.231Z,14.20
2022-11-08T10:35:31.041Z,14.20
2022-11-08T10:38:00.224Z,14.20
2022-11-08T10:40:45.942Z,14.20
2022-11-08T10:43:19.878Z,14.20
2022-11-08T10:45:47.326Z,14.10
2022-11-08T10:48:14.724Z,14.10
2022-11-08T10:50:48.990Z,14.10
2022-11-08T10:53:27.631Z,14.20
2022-11-08T10:56:07.020Z,14.20
2022-11-08T10:58:44.020Z,14.20
2022-11-08T11:01:20.773Z,14.30
2022-11-08T11:03:49.907Z,14.30
2022-11-08T11:06:32.823Z,14.30
2022-11-08T11:09:21.205Z,14.30
2022-11-08T11:11:58.151Z,14.40
2022-11-08T11:14:25.759Z,14.50
2022-11-08T11:17:03.110Z,14.50
2022-11-08T11:19:31.095Z,14.60
2022-11-08T11:22:05.033Z,14.60
2022-11-08T11:24:32.457Z,14.60
2022-11-08T11:27:05.468Z,14.70
2022-11-08T11:29:37.414Z,14.70
2022-11-08T11:32:25.368Z,14.70
2022-11-08T11:34:54.442Z,14.80
2022-11-08T11:37:32.648Z,14.80
2022-11-08T11:39:59.642Z,14.80
2022-11-08T11:43:00.030Z,14.80
2022-11-08T11:45:40.762Z,14.80
2022-11-08T11:48:28.949Z,14.70
2022-11-08T11:50:57.196Z,14.70
2022-11-08T11:53:39.001Z,14.70
2022-11-08T11:56:30.938Z,14.70
2022-11-08T11:59:25.391Z,14.60
2022-11-08T12:01:52.716Z,14.60
2022-11-08T12:04:59.622Z,14.60
2022-11-08T12:07:28.637Z,14.60
2022-11-08T12:10:17.765Z,14.60
2022-11-08T12:13:20.936Z,14.60
2022-11-08T12:16:00.747Z,14.70
2022-11-08T12:18:58.215Z,14.70
2022-11-08T12:22:00.463Z,14.70
2022-11-08T12:24:42.490Z,14.60
2022-11-08T12:27:32.608Z,14.70
2022-11-08T12:30:03.598Z,14.60
2022-11-08T12:32:33.835Z,14.60
2022-11-08T12:35:17.689Z,14.60
2022-11-08T12:38:04.003Z,14.60
2022-11-08T12:40:38.763Z,14.60
2022-11-08T12:43:16.919Z,14.60
2022-11-08T12:46:13.312Z,14.60
2022-11-08T12:49:16.192Z,14.50
2022-11-08T12:52:27.670Z,14.50
2022-11-08T12:55:01.113Z,14.50
2022-11-08T12:57:29.283Z,14.40
2022-11-08T13:00:06.944Z,14.40
2022-11-08T13:02:37.520Z,14.40
2022-11-08T13:05:11.703Z,14.30
2022-11-08T13:08:00.130Z,14.30
2022-11-08T13:10:39.291Z,14.30
2022-11-08T13:13:45.193Z,14.20
2022-11-08T13:16:21.621Z,14.20
2022-11-08T13:18:59.805Z,14.10
2022-11-08T13:21:30.324Z,14.10
2022-11-08T13:24:13.949Z,14.10
2022-11-08T13:26:43.505Z,14.00
2022-11-08T13:29:16.097Z,14.00
2022-11-08T13:32:13.009Z,13.90
2022-11-08T13:34:45.798Z,13.90
2022-11-08T13:37:43.187Z,13.90
2022-11-08T13:40:13.252Z,13.90
2022-11-08T13:43:19.064Z,13.90
2022-11-08T13:45:46.634Z,13.90
2022-11-08T13:48:29.192Z,13.90
2022-11-08T13:50:57.388Z,13.80
2022-11-08T13:53:48.076Z,13.80
2022-11-08T13:56:39.891Z,13.80
2022-11-08T13:59:45.357Z,13.80
2022-11-08T14:02:44.648Z,13.80
2022-11-08T14:05:31.810Z,13.80
2022-11-08T14:08:13.065Z,13.70
2022-11-08T14:11:08.754Z,13.70
2022-11-08T14:14:40.854Z,13.70
2022-11-08T14:17:20.167Z,13.60
2022-11-08T14:19:48.639Z,13.60
2022-11-08T14:22:28.051Z,13.60
2022-11-08T14:25:00.707Z,13.50
2022-11-08T14:27:39.169Z,13.50
2022-11-08T14:30:15.097Z,13.50
2022-11-08T14:32:42.333Z,13.40
2022-11-08T14:35:14.949Z,13.40
2022-11-08T14:37:44.452Z,13.40
2022-11-08T14:40:23.518Z,13.30
2022-11-08T14:42:51.663Z,13.30
2022-11-08T14:45:25.742Z,13.30
2022-11-08T14:48:01.838Z,13.30
2022-11-08T14:50:32.703Z,13.20
2022-11-08T14:53:32.986Z,13.20
2022-11-08T14:56:18.344Z,13.20
2022-11-08T14:58:46.855Z,13.10
2022-11-08T15:01:15.825Z,13.10
2022-11-08T15:03:52.722Z,13.00
2022-11-08T15:06:19.906Z,13.00
2022-11-08T15:08:51.955Z,13.00
2022-11-08T15:11:52.615Z,13.00
2022-11-08T15:14:23.455Z,13.00
2022-11-08T15:16:57.324Z,12.90
2022-11-08T15:19:47.427Z,12.90
2022-11-08T15:22:32.715Z,12.90
2022-11-08T15:25:02.523Z,12.90
2022-11-08T15:27:29.805Z,12.90
2022-11-08T15:30:03.221Z,12.80
2022-11-08T15:32:37.505Z,12.80
2022-11-08T15:35:06.328Z,12.80
2022-11-08T15:37:39.296Z,12.70
2022-11-08T15:40:17.113Z,12.70
2022-11-08T15:42:46.296Z,12.70
2022-11-08T15:45:13.271Z,12.70
2022-11-08T15:47:43.138Z,12.60
2022-11-08T15:50:15.200Z,12.60
2022-11-08T15:52:43.138Z,12.60
2022-11-08T15:55:15.713Z,12.60
2022-11-08T15:57:45.064Z,12.60
2022-11-08T16:00:26.774Z,12.60
2022-11-08T16:02:54.739Z,12.50
2022-11-08T16:05:27.492Z,12.50
2022-11-08T16:07:55.462Z,12.50
2022-11-08T16:10:32.766Z,12.50
2022-11-08T16:13:01.297Z,12.50
2022-11-08T16:15:32.390Z,12.50
2022-11-08T16:18:01.008Z,12.50
2022-11-08T16:20:36.200Z,12.40
2022-11-08T16:23:08.053Z,12.50
2022-11-08T16:25:38.907Z,12.50
2022-11-08T16:28:13.590Z,12.40
2022-11-08T16:30:46.263Z,12.40
2022-11-08T16:33:27.723Z,12.40
2022-11-08T16:35:56.355Z,12.30
2022-11-08T16:38:27.434Z,12.40
2022-11-08T16:40:55.311Z,12.40
2022-11-08T16:43:22.463Z,12.30
2022-11-08T16:46:06.667Z,12.30
2022-11-08T16:48:38.429Z,12.20
2022-11-08T16:51:08.204Z,12.20
2022-11-08T16:53:36.874Z,12.10
2022-11-08T16:56:04.196Z,12.10
2022-11-08T16:58:31.401Z,12.00
2022-11-08T17:00:58.647Z,12.10
2022-11-08T17:03:29.735Z,12.10
2022-11-08T17:05:57.796Z,12.10
2022-11-08T17:08:25.675Z,13.00
2022-11-08T17:10:53.854Z,12.10
2022-11-08T17:13:21.349Z,12.00
2022-11-08T17:15:50.041Z,12.00
2022-11-08T17:18:21.152Z,12.00
2022-11-08T17:20:48.413Z,12.00
2022-11-08T17:23:16.573Z,11.90
2022-11-08T17:25:44.685Z,11.90
2022-11-08T17:28:12.734Z,11.90
2022-11-08T17:30:44.756Z,11.90
2022-11-08T17:33:13.252Z,11.90
2022-11-08T17:35:44.087Z,11.90
2022-11-08T17:38:12.320Z,11.90
2022-11-08T17:40:39.604Z,11.90
2022-11-08T17:43:06.606Z,12.00
2022-11-08T17:45:33.635Z,12.00
2022-11-08T17:48:00.676Z,12.00
2022-11-08T17:50:27.712Z,12.00
2022-11-08T17:52:55.054Z,12.00
2022-11-08T17:55:22.119Z,11.90
2022-11-08T17:57:49.229Z,11.90
2022-11-08T18:00:16.809Z,11.90
2022-11-08T18:02:45.021Z,11.90
2022-11-08T18:05:12.043Z,11.90
2022-11-08T18:07:40.213Z,11.90
2022-11-08T18:10:08.165Z,12.00
2022-11-08T18:12:35.855Z,12.00
2022-11-08T18:15:04.001Z,12.00
2022-11-08T18:17:31.022Z,12.00
2022-11-08T18:19:58.192Z,12.00
2022-11-08T18:22:25.373Z,12.00
2022-11-08T18:24:52.493Z,12.00
2022-11-08T18:27:19.679Z,12.10
2022-11-08T18:29:46.928Z,12.10
2022-11-08T18:32:13.963Z,12.10
2022-11-08T18:34:40.983Z,12.10
2022-11-08T18:37:08.049Z,12.10
2022-11-08T18:39:35.158Z,12.20
2022-11-08T18:42:02.370Z,12.20
2022-11-08T18:44:29.411Z,12.20
2022-11-08T18:46:56.666Z,12.20
2022-11-08T18:49:24.155Z,12.20
2022-11-08T18:51:52.769Z,12.20
2022-11-08T18:54:20.560Z,12.20
2022-11-08T18:56:47.694Z,12.20
2022-11-08T18:59:14.862Z,12.20
2022-11-08T19:01:42.038Z,12.20
2022-11-08T19:04:09.512Z,12.30
2022-11-08T19:06:38.150Z,12.20
2022-11-08T19:09:05.247Z,12.20
2022-11-08T19:11:32.975Z,12.20
2022-11-08T19:14:02.075Z,12.20
2022-11-08T19:16:29.752Z,12.20
2022-11-08T19:18:56.844Z,12.20
2022-11-08T19:21:26.322Z,12.30
2022-11-08T19:23:57.857Z,12.30
2022-11-08T19:26:25.872Z,12.30
2022-11-08T19:28:57.337Z,12.30
2022-11-08T19:31:25.171Z,12.30
2022-11-08T19:33:53.758Z,12.20
2022-11-08T19:36:23.449Z,12.20
2022-11-08T19:38:52.485Z,12.80
2022-11-08T19:41:22.288Z,12.20
2022-11-08T19:43:49.931Z,12.20
2022-11-08T19:46:22.720Z,12.20
2022-11-08T19:48:51.715Z,12.20
2022-11-08T19:51:27.470Z,12.20
2022-11-08T19:54:01.573Z,12.20
2022-11-08T19:56:57.630Z,12.20
2022-11-08T19:59:18.091Z,12.30
2022-11-08T20:01:46.554Z,12.30
2022-11-08T20:04:14.923Z,12.30
2022-11-08T20:06:43.932Z,12.30
2022-11-08T20:09:11.727Z,12.30
2022-11-08T20:11:43.256Z,12.30
2022-11-08T20:14:12.151Z,12.30
2022-11-08T20:16:43.104Z,12.30
2022-11-08T20:19:13.545Z,12.30
2022-11-08T20:21:42.356Z,12.30
2022-11-08T20:24:10.640Z,12.30
2022-11-08T20:26:38.711Z,12.30
2022-11-08T20:29:07.601Z,12.30
2022-11-08T20:31:35.343Z,12.30
2022-11-08T20:34:06.022Z,12.30
2022-11-08T20:36:35.260Z,12.30
2022-11-08T20:39:07.057Z,12.30
2022-11-08T20:41:37.840Z,12.30
2022-11-08T20:44:06.703Z,12.30
2022-11-08T20:46:34.669Z,12.40
2022-11-08T20:49:02.053Z,12.30
2022-11-08T20:51:31.518Z,12.30
2022-11-08T20:54:00.382Z,12.40
2022-11-08T20:56:29.096Z,12.40
2022-11-08T20:58:56.971Z,12.40
2022-11-08T21:01:30.932Z,12.40
2022-11-08T21:03:58.588Z,12.40
2022-11-08T21:06:27.876Z,12.40
2022-11-08T21:09:02.712Z,12.40
2022-11-08T21:11:34.729Z,12.40
2022-11-08T21:14:03.000Z,12.40
2022-11-08T21:16:38.221Z,12.40
2022-11-08T21:19:10.248Z,12.40
2022-11-08T21:21:37.841Z,12.40
2022-11-08T21:24:05.179Z,12.40
2022-11-08T21:26:36.486Z,12.40
2022-11-08T21:29:04.826Z,12.40
2022-11-08T21:31:32.248Z,12.50
2022-11-08T21:34:00.355Z,12.50
2022-11-08T21:36:29.374Z,12.50
2022-11-08T21:38:56.683Z,12.50
2022-11-08T21:41:23.813Z,12.50
2022-11-08T21:43:50.816Z,12.50
2022-11-08T21:46:29.614Z,12.50
2022-11-08T21:49:01.838Z,12.50
2022-11-08T21:51:30.613Z,12.50
2022-11-08T21:53:59.353Z,12.50
2022-11-08T21:56:30.613Z,12.50
2022-11-08T21:58:58.254Z,12.60
2022-11-08T22:01:29.895Z,12.60
2022-11-08T22:03:58.424Z,12.60
2022-11-08T22:06:26.298Z,12.60
2022-11-08T22:08:53.606Z,12.60
2022-11-08T22:11:20.966Z,12.60
2022-11-08T22:13:48.176Z,12.60
2022-11-08T22:16:15.234Z,12.60
2022-11-08T22:19:03.543Z,12.60
2022-11-08T22:21:38.875Z,12.60
2022-11-08T22:24:06.923Z,12.60
2022-11-08T22:26:34.437Z,12.60
2022-11-08T22:29:03.565Z,12.60
2022-11-08T22:31:31.595Z,12.60
2022-11-08T22:33:58.913Z,12.60
2022-11-08T22:36:26.399Z,12.60
2022-11-08T22:38:53.633Z,12.60
2022-11-08T22:41:23.627Z,12.70
2022-11-08T22:43:51.224Z,12.60
2022-11-08T22:46:18.296Z,12.60
2022-11-08T22:48:45.810Z,12.60
2022-11-08T22:51:13.292Z,12.70
2022-11-08T22:53:41.676Z,12.70
2022-11-08T22:56:11.482Z,12.70
2022-11-08T22:58:39.456Z,12.70
2022-11-08T23:01:07.883Z,12.70
2022-11-08T23:03:34.874Z,12.70
2022-11-08T23:06:02.072Z,12.70
2022-11-08T23:08:29.190Z,12.80
2022-11-08T23:11:16.948Z,12.70
2022-11-08T23:14:03.088Z,12.80
2022-11-08T23:16:35.304Z,12.80
2022-11-08T23:19:26.798Z,12.70
2022-11-08T23:22:13.685Z,12.70
2022-11-08T23:24:42.633Z,12.70
2022-11-08T23:27:30.943Z,12.70
2022-11-08T23:30:16.549Z,12.70
2022-11-08T23:32:46.240Z,12.70
2022-11-08T23:35:14.118Z,12.70
2022-11-08T23:37:41.461Z,12.80
2022-11-08T23:40:30.960Z,12.70
2022-11-08T23:43:28.696Z,12.80
2022-11-08T23:45:56.448Z,12.80
2022-11-08T23:48:23.689Z,12.80
2022-11-08T23:50:54.006Z,12.80
2022-11-08T23:53:25.302Z,12.80
2022-11-08T23:55:53.823Z,12.80
2022-11-08T23:58:21.476Z,12.80
